Presidente Juscelino Kubitschek International Airport

SBBR · 聯邦區, 巴西

罗盘
风向 的 风向 110° 巴西利亚-儒塞利诺·库比契克总统国际机场 11R/29L
风: 5 kt, 2 beaufort

5 kt

2 kt
改变
0 ft 1.000 2.000 3.000 4.000 5.000
CAVOK
METAR SBBR 270100Z 11005KT CAVOK 22/13 Q1019

METAR 巴西利亚-儒塞利诺·库比契克总统国际机场 - SBBR/BSB

巴西利亚-儒塞利诺·库比契克总统国际机场是,巴西中的大型机场。 该机场位于纬度-15,87120和经度-47,91933。 该机场有2条跑道: 11R/29L 和 11L/29R. 本场的ICAO机场代码为SBBR。 该机场的IATA代码为BSB。 机场在Brasilia FIR中。

该航空气象观测是针对巴西利亚-儒塞利诺·库比契克总统国际机场在2024年2月26日 22:00, 当地时间进行的。

机场观察

风向为110°,速度为5 kt。

天气为CAVOK。这意味着在5.000 ft或MSA(最低安全高度)以下(以较高者为准)以下没有云。这也意味着没有观测到积雨云或高耸的积云,可见度为10 km 或者更多或更高。此外,不会有雾,降雨或其他重要天气。

温度和风寒是22 °C。 露点为13 °C,相对湿度为57%。 海平面上的气压为1019 hPa (QNH)。

白天

今天,太阳从06:11升起,在18:37降落。 这适用于巴西利亚-儒塞利诺·库比契克总统国际机场,世界夏令时可能有所不同。 当地时间与世界标准时间之间的时差为-3 小时。 当前,没有夏令时有效。

公司介绍

我们没有关于这个机场的公司信息。

体会

到Vliegles.nl去找飞行课程,跳伞和其他飞行体验。 浏览页面,了解巴西利亚-儒塞利诺·库比契克总统国际机场附近所有可用的活动。 你也可以使用搜索功能来寻找你所在地附近的特定飞行课程、跳伞或其他飞行体验。

跑道

Id 标题 侧风 逆风 侧风 %
11R/29L 086°-266° 2 kt 5 kt 41 %
11L/29R 086°-266° 2 kt 5 kt 41 %

逆风成分最大的方向会被突出显示,并用于横风计算。 这并不一定意味着这个方向在使用。

温度 & 天气

温度 22 °C
露点 13 °C
相对湿度 57%
Kp-index 3 (0-9)

白天

日出
06:11 (7:48)
中午
12:24
日落
18:37

小工具

你想在你的网站上有一个关于巴西利亚-儒塞利诺·库比契克总统国际机场的当前航空天气(METAR)的小部件吗?

显示HTML代码
?>